Time;durP1;ratioP1;P1;durP2;ratioP2;P2;SDS_P1;SDS_P2;PMS_P1;PMS_P2;Temp;Humidity;BMP_temperature;BMP_pressure;BME280_temperature;BME280_humidity;BME280_pressure;Samples;Min_cycle;Max_cycle;Signal;HPM_P1;HPM_P2
2021/07/10 00:01:52;;;;;;;13.43;10.37;;;;;;;18.09;76.65;100763.09;5014324;28;20424;-87
2021/07/10 00:04:17;;;;;;;12.53;11.20;;;;;;;18.08;76.66;100759.53;5013009;28;20420;-87
2021/07/10 00:06:43;;;;;;;13.97;11.17;;;;;;;18.04;76.60;100754.91;5013188;28;20501;-87
2021/07/10 00:09:08;;;;;;;14.57;11.00;;;;;;;18.03;76.77;100747.78;5013134;28;20391;-87
2021/07/10 00:11:33;;;;;;;11.83;10.77;;;;;;;18.02;76.76;100757.94;5014026;28;20403;-87
2021/07/10 00:13:58;;;;;;;14.88;11.43;;;;;;;18.00;76.88;100737.38;5014351;28;20393;-87
2021/07/10 00:16:24;;;;;;;13.70;12.03;;;;;;;17.97;76.66;100747.00;4995783;28;20470;-87
2021/07/10 00:18:49;;;;;;;15.53;10.10;;;;;;;17.94;76.80;100733.06;5012190;28;20429;-87
2021/07/10 00:21:14;;;;;;;13.07;9.98;;;;;;;17.90;76.79;100731.97;5013905;28;20686;-87
2021/07/10 00:23:40;;;;;;;14.80;10.50;;;;;;;17.85;76.55;100727.34;5013301;28;20412;-87
2021/07/10 00:26:08;;;;;;;15.23;9.87;;;;;;;17.80;76.84;100716.44;5011687;28;20484;-87
2021/07/10 00:28:34;;;;;;;11.48;9.70;;;;;;;17.81;76.83;100720.81;5013985;28;20393;-87
2021/07/10 00:30:59;;;;;;;11.43;9.50;;;;;;;17.82;76.87;100729.84;5013941;28;20451;-87
2021/07/10 00:33:24;;;;;;;13.85;10.15;;;;;;;17.79;77.03;100723.00;5012534;28;20397;-87
2021/07/10 00:35:49;;;;;;;12.73;9.70;;;;;;;17.76;77.06;100720.84;5012700;28;20405;-87
2021/07/10 00:38:15;;;;;;;9.37;8.47;;;;;;;17.73;77.02;100720.59;5013107;28;20520;-87
2021/07/10 00:40:40;;;;;;;10.85;8.68;;;;;;;17.73;76.81;100726.91;5012629;28;20918;-87
2021/07/10 00:43:06;;;;;;;17.17;7.50;;;;;;;17.69;76.75;100727.75;5012160;28;20945;-87
2021/07/10 00:45:33;;;;;;;13.37;7.00;;;;;;;17.67;76.73;100738.19;5013506;28;20466;-87
2021/07/10 00:47:59;;;;;;;15.27;6.90;;;;;;;17.64;76.55;100736.84;5013706;28;20393;-87
2021/07/10 00:50:25;;;;;;;50.10;6.33;;;;;;;17.60;76.57;100736.59;5013535;28;20400;-87
2021/07/10 00:52:51;;;;;;;28.98;7.63;;;;;;;17.58;76.45;100725.09;5012877;28;20393;-87
2021/07/10 00:55:17;;;;;;;30.08;7.65;;;;;;;17.56;76.88;100730.03;5013238;28;20401;-87
2021/07/10 00:57:43;;;;;;;21.73;6.80;;;;;;;17.54;76.57;100718.53;5013470;28;20796;-87
2021/07/10 01:00:15;;;;;;;23.73;6.80;;;;;;;17.53;76.59;100718.78;5013343;28;20397;-87
2021/07/10 01:02:41;;;;;;;14.57;7.47;;;;;;;17.49;76.67;100704.84;5013081;28;20403;-87
2021/07/10 01:05:10;;;;;;;17.20;6.85;;;;;;;17.49;76.70;100706.75;5012724;28;20760;-87
2021/07/10 01:07:36;;;;;;;59.97;9.30;;;;;;;17.42;76.79;100711.75;5010994;28;20753;-87
2021/07/10 01:10:02;;;;;;;20.35;8.80;;;;;;;17.42;76.70;100709.81;5013130;28;20455;-87
2021/07/10 01:12:29;;;;;;;20.50;8.27;;;;;;;17.41;76.65;100710.13;5011981;28;20499;-87
2021/07/10 01:14:56;;;;;;;14.02;8.23;;;;;;;17.37;76.76;100707.13;5010691;28;21798;-87
2021/07/10 01:17:21;;;;;;;8.52;7.85;;;;;;;17.37;76.71;100715.34;5011570;28;20828;-87
2021/07/10 01:20:11;;;;;;;9.37;8.47;;;;;;;17.36;76.58;100702.75;5012624;28;20487;-87
2021/07/10 01:22:37;;;;;;;13.27;9.40;;;;;;;17.32;76.73;100696.19;5011571;28;20729;-87
2021/07/10 01:25:06;;;;;;;13.77;9.43;;;;;;;17.30;76.77;100697.56;5010551;28;20753;-87
2021/07/10 01:27:31;;;;;;;11.77;9.40;;;;;;;17.26;76.75;100697.31;5011668;28;20458;-87
2021/07/10 01:29:57;;;;;;;11.57;9.60;;;;;;;17.25;76.94;100692.13;5012006;28;20397;-87
2021/07/10 01:32:24;;;;;;;11.30;7.38;;;;;;;17.24;76.85;100691.31;5012413;28;20491;-87
2021/07/10 01:34:50;;;;;;;9.43;8.53;;;;;;;17.20;76.74;100690.25;5012463;28;20401;-87
2021/07/10 01:37:16;;;;;;;9.05;7.22;;;;;;;17.19;76.47;100688.59;5012613;28;20388;-88
2021/07/10 01:39:43;;;;;;;10.35;6.93;;;;;;;17.17;76.81;100692.72;5010006;28;20824;-87
2021/07/10 01:42:09;;;;;;;26.73;8.45;;;;;;;17.10;76.82;100685.63;5012218;28;20413;-87
2021/07/10 01:44:35;;;;;;;10.13;7.93;;;;;;;17.09;76.64;100686.72;5012439;28;20417;-87
2021/07/10 01:47:00;;;;;;;24.13;7.28;;;;;;;17.07;76.30;100678.00;5012424;28;20392;-87
2021/07/10 01:49:26;;;;;;;29.10;6.80;;;;;;;17.02;76.09;100677.22;5012413;28;20437;-87
2021/07/10 01:51:51;;;;;;;19.77;6.70;;;;;;;16.99;75.90;100678.56;5012513;28;20480;-87
2021/07/10 01:54:16;;;;;;;22.30;6.80;;;;;;;16.95;75.66;100665.75;5010589;28;20737;-87
2021/07/10 01:56:42;;;;;;;45.70;7.67;;;;;;;16.90;75.62;100672.06;5012312;28;20432;-87
2021/07/10 01:59:08;;;;;;;12.27;8.13;;;;;;;16.84;75.58;100664.97;5011645;28;20892;-87
2021/07/10 02:01:33;;;;;;;16.00;7.88;;;;;;;16.81;75.78;100662.81;5010326;28;20400;-87
2021/07/10 02:03:59;;;;;;;8.50;7.53;;;;;;;16.79;75.84;100662.28;5010809;28;20904;-87
2021/07/10 02:06:25;;;;;;;9.77;7.73;;;;;;;16.78;75.67;100659.81;5012197;28;20404;-87
2021/07/10 02:08:50;;;;;;;10.90;7.87;;;;;;;16.73;75.83;100660.63;5009928;28;20397;-87
2021/07/10 02:11:15;;;;;;;14.87;9.53;;;;;;;16.72;76.17;100650.81;5010193;28;20409;-87
2021/07/10 02:13:47;;;;;;;13.93;9.30;;;;;;;16.73;75.93;100657.91;5010943;28;20452;-87
2021/07/10 02:16:14;;;;;;;16.73;9.53;;;;;;;16.72;75.82;100660.94;5010521;28;20425;-88
2021/07/10 02:18:39;;;;;;;10.23;9.32;;;;;;;16.71;75.97;100657.38;5010789;28;20453;-87
2021/07/10 02:21:05;;;;;;;10.20;9.30;;;;;;;16.70;76.01;100655.72;5009889;28;20413;-87
2021/07/10 02:23:30;;;;;;;10.13;9.30;;;;;;;16.67;76.38;100652.72;5009335;28;20408;-87
2021/07/10 02:25:56;;;;;;;10.20;9.10;;;;;;;16.70;76.14;100652.16;5011452;28;20775;-88
2021/07/10 02:28:21;;;;;;;11.50;9.05;;;;;;;16.70;76.21;100650.25;5010628;28;20946;-87
2021/07/10 02:30:47;;;;;;;18.10;10.77;;;;;;;16.70;75.95;100647.50;5010386;28;20460;-87
2021/07/10 02:33:13;;;;;;;32.53;10.05;;;;;;;16.71;76.01;100651.06;5010639;28;20403;-87
2021/07/10 02:35:38;;;;;;;89.80;12.20;;;;;;;16.68;76.05;100654.38;5011663;28;20760;-87
2021/07/10 02:38:04;;;;;;;45.17;11.30;;;;;;;16.67;76.55;100653.56;5009739;28;20521;-87
2021/07/10 02:40:30;;;;;;;30.00;10.05;;;;;;;16.64;76.49;100654.13;5011508;28;20922;-87
2021/07/10 02:42:55;;;;;;;91.60;11.50;;;;;;;16.60;76.37;100647.56;5011702;28;20892;-87
2021/07/10 02:45:21;;;;;;;40.93;11.27;;;;;;;16.59;76.55;100646.75;5010354;28;20397;-87
2021/07/10 02:47:47;;;;;;;32.40;10.03;;;;;;;16.59;76.43;100654.97;5011021;28;20447;-87
2021/07/10 02:50:17;;;;;;;17.23;9.43;;;;;;;16.57;76.74;100648.94;5009507;28;20408;-87
2021/07/10 02:52:42;;;;;;;49.47;9.90;;;;;;;16.56;76.78;100639.09;5010078;28;20726;-87
2021/07/10 02:55:09;;;;;;;70.85;12.73;;;;;;;16.55;76.69;100639.38;5010285;28;20415;-87
2021/07/10 02:57:34;;;;;;;84.35;12.73;;;;;;;16.51;76.96;100641.81;5010461;28;20528;-87
2021/07/10 03:00:00;;;;;;;50.00;11.73;;;;;;;16.51;77.36;100641.00;5011168;28;20484;-87
2021/07/10 03:02:25;;;;;;;18.10;10.60;;;;;;;16.53;77.37;100642.34;5011143;28;20405;-88
2021/07/10 03:04:51;;;;;;;15.82;9.82;;;;;;;16.51;77.45;100639.09;5010342;28;20421;-87
2021/07/10 03:07:16;;;;;;;19.30;11.17;;;;;;;16.49;77.39;100640.47;5010082;28;20726;-87
2021/07/10 03:09:41;;;;;;;30.35;12.07;;;;;;;16.48;77.04;100636.09;5010212;28;20393;-87
2021/07/10 03:12:07;;;;;;;30.40;12.23;;;;;;;16.49;76.91;100637.75;5009482;28;20423;-88
2021/07/10 03:14:32;;;;;;;14.57;12.18;;;;;;;16.49;76.83;100638.56;5009937;28;20432;-87
2021/07/10 03:16:58;;;;;;;16.57;12.10;;;;;;;16.45;76.86;100631.19;5009985;28;20508;-88
2021/07/10 03:19:23;;;;;;;19.88;12.48;;;;;;;16.46;76.70;100627.34;5011468;28;20752;-87
2021/07/10 03:21:49;;;;;;;18.03;11.87;;;;;;;16.47;77.10;100631.72;5008597;28;20488;-88
2021/07/10 03:24:14;;;;;;;14.93;12.07;;;;;;;16.48;76.95;100627.88;5010082;28;20440;-87
2021/07/10 03:26:40;;;;;;;20.17;12.65;;;;;;;16.47;77.03;100632.53;5011192;28;20464;-88
2021/07/10 03:29:05;;;;;;;21.07;12.10;;;;;;;16.42;77.09;100627.09;5011045;28;20396;-87
2021/07/10 03:31:31;;;;;;;14.23;11.03;;;;;;;16.41;77.23;100633.66;5009789;28;20459;-87
2021/07/10 03:33:56;;;;;;;18.33;10.63;;;;;;;16.38;77.01;100626.00;5011437;28;20388;-87
2021/07/10 03:36:24;;;;;;;18.07;10.17;;;;;;;16.39;76.76;100626.84;5010496;28;20462;-88
2021/07/10 03:38:49;;;;;;;15.95;9.85;;;;;;;16.36;76.80;100622.75;5010899;28;20880;-87
2021/07/10 03:41:14;;;;;;;21.37;9.50;;;;;;;16.36;76.48;100621.91;5009726;28;20439;-87
2021/07/10 03:43:41;;;;;;;14.17;9.50;;;;;;;16.30;76.55;100615.63;5009910;28;20420;-88
2021/07/10 03:46:06;;;;;;;18.43;10.03;;;;;;;16.26;76.40;100619.22;5011194;28;20392;-87
2021/07/10 03:48:32;;;;;;;11.53;9.20;;;;;;;16.24;76.35;100616.75;5008329;28;20420;-86
2021/07/10 03:50:58;;;;;;;8.17;7.37;;;;;;;16.24;76.39;100616.75;5008498;28;20421;-88
2021/07/10 03:53:24;;;;;;;11.48;7.22;;;;;;;16.23;76.21;100617.88;5009527;28;20401;-88
2021/07/10 03:55:49;;;;;;;8.15;7.35;;;;;;;16.17;76.40;100618.94;5009562;28;20524;-87
2021/07/10 03:58:15;;;;;;;12.43;6.60;;;;;;;16.13;76.62;100617.06;5010325;28;20579;-87
2021/07/10 04:00:40;;;;;;;6.60;6.13;;;;;;;16.11;76.24;100617.34;5011906;28;20499;-87
2021/07/10 04:03:07;;;;;;;5.57;5.27;;;;;;;16.08;76.05;100623.34;5000519;28;20427;-87
2021/07/10 04:05:32;;;;;;;9.90;5.20;;;;;;;16.04;76.17;100622.28;5002276;28;20416;-87
2021/07/10 04:07:58;;;;;;;5.23;4.80;;;;;;;16.04;76.02;100628.56;5012377;28;20407;-87
2021/07/10 04:10:23;;;;;;;10.47;6.53;;;;;;;16.05;76.00;100632.13;5013077;28;20578;-87
2021/07/10 04:12:48;;;;;;;9.80;6.30;;;;;;;16.07;76.38;100624.44;5013418;28;20506;-87
2021/07/10 04:15:16;;;;;;;13.45;6.53;;;;;;;16.09;76.63;100619.53;5013061;28;20456;-87
2021/07/10 04:17:42;;;;;;;5.90;5.37;;;;;;;16.14;76.58;100613.22;5014180;28;20407;-87
2021/07/10 04:20:09;;;;;;;6.00;5.00;;;;;;;16.15;76.63;100607.50;5013076;28;20400;-87
2021/07/10 04:22:38;;;;;;;5.40;4.90;;;;;;;16.16;76.45;100621.97;5013218;28;20436;-87
2021/07/10 04:25:09;;;;;;;5.80;4.30;;;;;;;16.18;76.28;100614.31;5013939;28;20416;-87
2021/07/10 04:27:35;;;;;;;4.68;4.30;;;;;;;16.19;76.42;100614.03;5014040;28;20476;-87
2021/07/10 04:30:01;;;;;;;4.67;4.30;;;;;;;16.21;76.30;100616.47;5018112;28;20531;-87
2021/07/10 04:32:27;;;;;;;4.60;4.22;;;;;;;16.21;76.47;100614.56;5013675;28;20397;-87
2021/07/10 04:34:52;;;;;;;4.78;4.32;;;;;;;16.20;76.66;100618.41;5013049;28;20775;-87
2021/07/10 04:37:19;;;;;;;7.88;4.50;;;;;;;16.21;76.78;100621.94;5005249;28;20424;-88
2021/07/10 04:39:44;;;;;;;5.00;4.60;;;;;;;16.24;76.87;100624.94;5004098;28;20419;-88
2021/07/10 04:42:09;;;;;;;4.77;4.47;;;;;;;16.27;76.94;100632.59;5009317;28;20939;-87
2021/07/10 04:44:35;;;;;;;4.07;3.88;;;;;;;16.29;77.08;100629.59;4992728;28;20422;-87
2021/07/10 04:47:01;;;;;;;5.45;5.05;;;;;;;16.31;77.01;100625.47;5010537;28;20440;-87
2021/07/10 04:49:26;;;;;;;9.57;7.47;;;;;;;16.34;77.05;100624.09;5030765;28;20476;-87
2021/07/10 04:51:52;;;;;;;8.73;7.50;;;;;;;16.33;76.76;100626.03;5012446;28;20471;-88
2021/07/10 04:54:17;;;;;;;8.23;7.63;;;;;;;16.28;77.10;100620.56;5012639;28;20423;-88
2021/07/10 04:56:42;;;;;;;8.43;7.70;;;;;;;16.31;76.98;100619.19;5012130;28;20408;-88
2021/07/10 04:59:07;;;;;;;9.17;8.17;;;;;;;16.32;76.86;100616.19;5012359;28;20467;-88
2021/07/10 05:01:33;;;;;;;8.25;7.55;;;;;;;16.35;77.05;100618.38;5013109;28;20815;-88
2021/07/10 05:03:58;;;;;;;9.33;7.90;;;;;;;16.39;77.14;100624.91;5027887;28;20450;-87
2021/07/10 05:06:25;;;;;;;8.13;7.40;;;;;;;16.45;77.34;100625.72;5031554;28;20878;-87
2021/07/10 05:08:50;;;;;;;8.57;7.38;;;;;;;16.49;77.29;100622.16;5031448;28;20499;-88
2021/07/10 05:11:17;;;;;;;8.98;8.18;;;;;;;16.53;77.34;100628.69;5011362;28;20840;-87
2021/07/10 05:13:42;;;;;;;13.10;8.63;;;;;;;16.57;77.43;100634.44;5011945;28;20404;-87
2021/07/10 05:16:07;;;;;;;14.23;8.67;;;;;;;16.64;77.55;100626.75;4995628;28;20419;-88
2021/07/10 05:18:33;;;;;;;11.70;9.00;;;;;;;16.71;77.70;100626.44;5033621;28;20407;-88
2021/07/10 05:20:58;;;;;;;9.67;8.70;;;;;;;16.78;77.60;100629.69;5022541;28;20479;-88
2021/07/10 05:23:24;;;;;;;14.15;8.25;;;;;;;16.81;77.47;100629.13;5012623;28;20423;-88
2021/07/10 05:25:49;;;;;;;10.00;8.47;;;;;;;16.80;77.03;100624.75;5012199;28;20944;-88
2021/07/10 05:28:16;;;;;;;10.43;8.38;;;;;;;16.78;77.37;100621.47;5012189;28;21329;-87
2021/07/10 05:30:41;;;;;;;9.23;8.03;;;;;;;16.78;77.66;100624.22;5002343;28;20901;-87
2021/07/10 05:33:07;;;;;;;10.33;9.27;;;;;;;16.74;78.00;100618.50;5013583;28;20412;-88
2021/07/10 05:35:32;;;;;;;10.53;9.43;;;;;;;16.78;78.08;100621.47;5011076;28;20393;-88
2021/07/10 05:37:58;;;;;;;9.57;8.73;;;;;;;16.80;78.21;100625.56;5012151;28;20411;-87
2021/07/10 05:40:23;;;;;;;10.05;9.23;;;;;;;16.85;78.40;100628.31;5012351;28;20396;-87
2021/07/10 05:42:49;;;;;;;10.80;10.00;;;;;;;16.87;78.19;100622.53;5026926;28;20395;-87
2021/07/10 05:45:16;;;;;;;10.53;9.53;;;;;;;16.90;78.51;100621.97;5006269;28;20512;-87
2021/07/10 05:47:41;;;;;;;11.38;10.20;;;;;;;16.92;78.92;100630.72;5014150;28;20416;-87
2021/07/10 05:50:07;;;;;;;11.23;9.97;;;;;;;16.92;78.88;100633.47;5021752;28;20403;-87
2021/07/10 05:52:33;;;;;;;11.27;10.32;;;;;;;16.96;78.80;100621.66;5024872;28;20414;-87
2021/07/10 05:54:58;;;;;;;11.83;10.70;;;;;;;17.00;79.19;100627.38;5025362;28;20407;-87
2021/07/10 05:57:24;;;;;;;12.83;11.70;;;;;;;17.04;79.38;100629.28;5022503;28;20418;-87
2021/07/10 05:59:51;;;;;;;16.38;12.82;;;;;;;17.03;79.35;100622.16;5029767;28;20403;-87
2021/07/10 06:02:16;;;;;;;15.00;11.97;;;;;;;17.03;79.73;100624.91;4995522;28;20406;-87
2021/07/10 06:04:42;;;;;;;13.73;12.50;;;;;;;17.08;79.80;100624.06;5028128;28;20411;-87
2021/07/10 06:07:07;;;;;;;13.23;11.93;;;;;;;17.14;79.48;100625.66;5012641;28;20458;-87
2021/07/10 06:09:34;;;;;;;12.95;11.68;;;;;;;17.16;79.41;100614.44;5024779;28;20755;-88
2021/07/10 06:11:59;;;;;;;13.52;11.02;;;;;;;17.24;79.30;100617.38;5022568;28;20424;-85
2021/07/10 06:14:25;;;;;;;11.60;10.13;;;;;;;17.31;79.23;100615.13;5008632;28;20417;-86
2021/07/10 06:16:50;;;;;;;14.53;9.60;;;;;;;17.40;78.78;100615.31;4992172;28;20410;-86
2021/07/10 06:19:15;;;;;;;10.30;9.30;;;;;;;17.45;78.74;100618.03;4991213;28;20505;-85
2021/07/10 06:21:41;;;;;;;10.13;9.30;;;;;;;17.51;78.72;100623.19;5010424;28;20434;-88
2021/07/10 06:24:06;;;;;;;10.27;9.27;;;;;;;17.57;78.94;100611.09;5019709;28;20471;-86
2021/07/10 06:26:31;;;;;;;9.77;8.87;;;;;;;17.66;78.50;100618.69;5009070;28;20397;-86
2021/07/10 06:28:57;;;;;;;10.33;9.33;;;;;;;17.76;78.49;100613.13;5005154;28;20417;-84
2021/07/10 06:31:22;;;;;;;12.10;8.57;;;;;;;17.82;78.15;100609.22;4999326;28;20459;-84
2021/07/10 06:33:48;;;;;;;9.50;8.70;;;;;;;17.90;78.17;100601.19;5010766;28;20481;-85
2021/07/10 06:36:14;;;;;;;9.48;8.65;;;;;;;17.98;77.98;100600.56;4992707;28;20406;-85
2021/07/10 06:38:39;;;;;;;10.10;9.03;;;;;;;18.04;77.79;100599.41;5020517;28;20420;-86
2021/07/10 06:41:04;;;;;;;9.13;8.13;;;;;;;18.11;78.23;100599.84;5010523;28;20901;-84
2021/07/10 06:43:30;;;;;;;9.50;8.70;;;;;;;18.20;77.78;100605.53;5026634;28;20439;-85
2021/07/10 06:45:55;;;;;;;9.07;8.23;;;;;;;18.33;77.54;100601.28;5007151;28;20771;-84
2021/07/10 06:48:20;;;;;;;8.70;7.97;;;;;;;18.40;76.72;100608.06;5008786;28;20872;-87
2021/07/10 06:50:46;;;;;;;9.73;8.47;;;;;;;18.44;76.70;100600.84;5011299;28;20397;-86
2021/07/10 06:53:11;;;;;;;9.25;8.20;;;;;;;18.54;76.55;100600.75;5009808;28;20488;-85
2021/07/10 06:55:37;;;;;;;8.80;8.10;;;;;;;18.63;76.34;100604.50;5009533;28;20497;-86
2021/07/10 06:58:02;;;;;;;8.33;7.67;;;;;;;18.70;76.40;100603.31;5002719;28;20402;-85
2021/07/10 07:00:27;;;;;;;8.77;7.77;;;;;;;18.75;76.49;100603.22;5010146;28;20494;-86
2021/07/10 07:02:53;;;;;;;8.73;7.90;;;;;;;18.82;76.75;100600.94;5010481;28;20448;-82
2021/07/10 07:05:18;;;;;;;8.83;8.13;;;;;;;18.95;76.52;100584.56;5025842;28;20418;-83
2021/07/10 07:07:43;;;;;;;8.53;7.73;;;;;;;19.00;76.24;100587.19;5013525;28;20784;-82
2021/07/10 07:10:10;;;;;;;7.63;7.03;;;;;;;19.18;75.70;100585.56;5009438;28;20405;-83
2021/07/10 07:12:36;;;;;;;8.25;7.32;;;;;;;19.23;75.37;100581.94;5009549;28;20488;-87
2021/07/10 07:15:04;;;;;;;8.60;7.70;;;;;;;19.44;75.19;100569.50;5000948;28;20416;-87
2021/07/10 07:17:29;;;;;;;7.78;7.03;;;;;;;19.54;74.95;100570.16;5001889;28;20434;-86
2021/07/10 07:19:54;;;;;;;7.70;7.03;;;;;;;19.67;74.38;100572.13;5016781;28;20421;-87
2021/07/10 07:22:19;;;;;;;39.50;9.70;;;;;;;19.75;73.79;100573.38;5010291;28;20484;-89
2021/07/10 07:24:45;;;;;;;12.93;7.53;;;;;;;19.77;74.20;100579.38;5009037;28;20930;-88
2021/07/10 07:27:13;;;;;;;8.43;7.63;;;;;;;19.86;73.89;100568.47;4994795;28;20404;-88
2021/07/10 07:29:39;;;;;;;7.30;6.70;;;;;;;19.89;73.97;100570.66;4998591;28;20397;-87
2021/07/10 07:32:04;;;;;;;7.77;7.17;;;;;;;20.03;73.71;100563.19;5026801;28;20415;-86
2021/07/10 07:34:30;;;;;;;7.97;7.20;;;;;;;20.21;72.88;100559.56;5008284;28;20415;-87
2021/07/10 07:36:55;;;;;;;7.40;6.70;;;;;;;20.42;73.11;100557.19;5025743;28;20898;-86
2021/07/10 07:39:20;;;;;;;9.27;6.70;;;;;;;20.57;72.08;100567.91;5012155;28;20408;-87
2021/07/10 07:41:46;;;;;;;8.73;7.60;;;;;;;20.53;72.03;100564.13;5012964;28;20428;-86
2021/07/10 07:44:11;;;;;;;8.93;7.33;;;;;;;20.46;72.83;100556.28;5027438;28;20458;-89
2021/07/10 07:46:36;;;;;;;11.68;9.13;;;;;;;20.52;72.50;100554.22;5018336;28;20863;-90
2021/07/10 07:49:03;;;;;;;15.77;7.83;;;;;;;20.58;71.86;100551.06;5013016;28;20404;-87
2021/07/10 07:51:28;;;;;;;9.73;8.80;;;;;;;20.70;71.56;100556.88;5003595;28;20771;-88
2021/07/10 07:53:53;;;;;;;9.73;8.73;;;;;;;20.77;71.58;100552.88;5014424;28;20407;-88
2021/07/10 07:56:19;;;;;;;11.25;8.38;;;;;;;20.78;71.65;100560.81;5013138;28;20400;-89
2021/07/10 07:58:44;;;;;;;12.70;8.97;;;;;;;20.90;71.05;100550.06;5023321;28;20413;-88
2021/07/10 08:01:10;;;;;;;9.87;8.87;;;;;;;21.01;71.15;100545.16;5023188;28;20459;-88
2021/07/10 08:03:36;;;;;;;16.07;9.53;;;;;;;21.16;70.97;100545.63;5012427;28;20440;-92
2021/07/10 08:06:02;;;;;;;14.82;9.63;;;;;;;21.27;70.32;100554.47;5012701;28;20400;-91
2021/07/10 08:08:28;;;;;;;15.50;9.93;;;;;;;21.42;69.81;100551.31;5013441;28;20401;-91
2021/07/10 08:10:53;;;;;;;18.60;8.60;;;;;;;21.62;69.48;100553.53;5012945;28;20404;-92
2021/07/10 08:13:19;;;;;;;14.67;8.90;;;;;;;21.81;69.11;100546.97;5014607;28;20861;-92
2021/07/10 08:15:44;;;;;;;13.10;8.67;;;;;;;21.88;67.90;100539.06;5009166;28;20397;-91
2021/07/10 08:18:10;;;;;;;17.07;8.23;;;;;;;21.90;67.95;100534.88;5002731;28;20409;-93
2021/07/10 08:20:35;;;;;;;13.67;8.77;;;;;;;21.94;68.81;100535.03;5006907;28;20397;-92
2021/07/10 08:23:01;;;;;;;10.70;7.57;;;;;;;21.93;68.01;100528.72;5012096;28;20576;-93
2021/07/10 08:25:27;;;;;;;15.48;8.23;;;;;;;22.02;67.68;100528.75;5028760;28;20395;-91
2021/07/10 08:27:55;;;;;;;12.05;7.85;;;;;;;22.06;67.21;100522.25;5019866;28;20412;-91
2021/07/10 08:30:21;;;;;;;10.90;7.25;;;;;;;22.13;67.40;100516.28;5011337;28;20776;-91
2021/07/10 08:32:47;;;;;;;14.02;8.13;;;;;;;22.45;67.01;100510.38;5019778;28;20416;-91
2021/07/10 08:35:15;;;;;;;10.07;7.40;;;;;;;22.71;65.93;100514.00;5013709;28;20393;-91
2021/07/10 08:37:41;;;;;;;14.20;7.38;;;;;;;22.82;65.45;100508.16;5004293;28;20410;-91
2021/07/10 08:40:09;;;;;;;11.77;7.07;;;;;;;22.89;64.85;100503.75;5022317;28;20398;-91
2021/07/10 08:42:34;;;;;;;16.45;6.82;;;;;;;23.00;65.26;100510.59;5025585;28;20405;-92
2021/07/10 08:45:07;;;;;;;11.13;6.37;;;;;;;23.14;65.32;100499.34;5010202;28;20461;-91
2021/07/10 08:47:38;;;;;;;8.45;6.65;;;;;;;23.37;64.10;100503.53;5011640;28;20463;-91
2021/07/10 08:50:06;;;;;;;7.65;5.80;;;;;;;23.67;63.60;100498.94;5012756;28;20409;-91
2021/07/10 08:52:36;;;;;;;16.55;5.75;;;;;;;24.11;62.11;100512.22;5000053;28;20461;-90
2021/07/10 08:55:10;;;;;;;9.82;6.30;;;;;;;24.67;60.16;100507.34;5008189;28;20429;-90
2021/07/10 08:57:36;;;;;;;9.70;6.00;;;;;;;25.37;56.86;100502.81;5000241;28;20387;-90
2021/07/10 09:00:11;;;;;;;114.60;12.40;;;;;;;28.77;48.02;100503.19;5011845;28;20459;-82
2021/07/10 09:08:16;;;;;;;9.17;5.70;;;;;;;23.21;63.29;100508.78;5091865;27;1912867;-76
2021/07/10 09:10:44;;;;;;;5.93;5.40;;;;;;;22.52;64.99;100505.19;5141238;27;20401;-80
2021/07/10 09:13:10;;;;;;;8.35;6.15;;;;;;;22.27;65.78;100502.34;5134501;27;20416;-81
2021/07/10 09:15:36;;;;;;;8.30;6.50;;;;;;;22.16;66.30;100501.88;5141470;27;20730;-78
2021/07/10 09:18:05;;;;;;;6.13;5.55;;;;;;;22.10;66.20;100503.94;5136428;27;20476;-78
2021/07/10 09:20:32;;;;;;;7.07;5.35;;;;;;;22.06;67.24;100497.44;5135792;27;20395;-78
2021/07/10 09:22:57;;;;;;;5.38;4.95;;;;;;;21.95;66.95;100498.88;5138493;27;20481;-78
2021/07/10 09:25:34;;;;;;;7.03;5.00;;;;;;;22.04;67.00;100501.66;5150262;27;20507;-77
2021/07/10 09:28:02;;;;;;;8.73;6.00;;;;;;;22.15;66.25;100495.53;5146930;27;20490;-77
2021/07/10 09:30:37;;;;;;;7.68;5.65;;;;;;;22.23;64.89;100493.91;5149114;27;20394;-77
2021/07/10 09:33:21;;;;;;;6.33;5.73;;;;;;;22.38;64.47;100485.19;5149757;27;20398;-81
2021/07/10 09:35:52;;;;;;;8.50;5.90;;;;;;;22.48;64.96;100490.41;5148874;27;20475;-75
2021/07/10 09:38:33;;;;;;;6.20;5.10;;;;;;;22.51;64.85;100486.97;5129311;27;20395;-74
2021/07/10 09:41:06;;;;;;;11.60;6.07;;;;;;;22.52;65.60;100485.84;5129782;27;20391;-77
2021/07/10 09:43:34;;;;;;;12.27;6.05;;;;;;;22.79;65.17;100483.94;5148423;27;20738;-77
2021/07/10 09:46:02;;;;;;;5.53;5.03;;;;;;;22.99;63.73;100486.03;5130133;27;20972;-78
2021/07/10 09:48:33;;;;;;;5.70;4.82;;;;;;;23.11;63.22;100481.47;5130168;27;20406;-78
2021/07/10 09:51:24;;;;;;;5.13;4.60;;;;;;;23.18;63.05;100479.00;5149297;27;20386;-76
2021/07/10 09:54:16;;;;;;;8.07;5.57;;;;;;;23.44;62.08;100470.69;5148214;27;20469;-76
2021/07/10 09:57:11;;;;;;;6.13;5.63;;;;;;;23.56;61.10;100470.81;5121929;27;20392;-76
2021/07/10 09:59:41;;;;;;;5.38;4.88;;;;;;;23.69;62.34;100469.78;5110497;28;20487;-76
2021/07/10 10:02:13;;;;;;;5.13;4.72;;;;;;;23.84;58.54;100462.88;5140814;27;20720;-76
2021/07/10 10:04:39;;;;;;;4.45;4.05;;;;;;;23.95;61.15;100453.03;5136704;27;20388;-76
2021/07/10 10:07:10;;;;;;;6.27;3.93;;;;;;;24.23;59.00;100457.00;5115224;28;20411;-76
2021/07/10 10:09:36;;;;;;;4.40;3.83;;;;;;;24.70;58.24;100454.00;5128828;27;20475;-76
2021/07/10 10:12:07;;;;;;;3.63;3.33;;;;;;;25.38;53.78;100449.78;5145662;27;20398;-76
2021/07/10 10:14:38;;;;;;;3.53;3.33;;;;;;;26.58;51.69;100444.53;5145718;27;20441;-76
2021/07/10 10:17:04;;;;;;;3.67;3.38;;;;;;;27.94;47.14;100450.66;5137824;27;20506;-76
2021/07/10 10:19:31;;;;;;;4.23;3.40;;;;;;;29.74;43.31;100446.84;5125202;27;20408;-76
2021/07/10 10:21:59;;;;;;;6.03;3.20;;;;;;;31.14;41.67;100452.06;5134170;27;20387;-76
2021/07/10 10:24:27;;;;;;;4.53;3.10;;;;;;;32.57;38.69;100449.25;5132136;27;20392;-76
2021/07/10 10:26:56;;;;;;;2.33;2.22;;;;;;;33.92;33.95;100443.56;5132727;27;20410;-77
2021/07/10 10:29:23;;;;;;;2.42;2.33;;;;;;;34.63;32.29;100451.91;5125657;27;20729;-76
2021/07/10 10:31:49;;;;;;;2.40;2.30;;;;;;;35.31;31.24;100439.09;5116876;27;20418;-77
2021/07/10 10:34:14;;;;;;;2.10;2.00;;;;;;;35.67;29.67;100445.28;5124974;27;20402;-76
2021/07/10 10:36:43;;;;;;;3.28;2.35;;;;;;;36.13;28.28;100438.44;5131059;27;20412;-76
2021/07/10 10:39:21;;;;;;;2.22;2.05;;;;;;;36.01;26.67;100444.59;5134643;27;20473;-76
2021/07/10 10:41:54;;;;;;;1.60;1.60;;;;;;;36.78;25.49;100440.97;5118724;27;20413;-76
2021/07/10 10:44:20;;;;;;;2.30;2.08;;;;;;;37.23;24.26;100433.09;5117720;27;20451;-76
2021/07/10 10:46:56;;;;;;;2.20;1.90;;;;;;;37.70;23.22;100430.34;5133134;27;20394;-76
2021/07/10 10:49:43;;;;;;;2.60;1.53;;;;;;;38.12;23.27;100432.44;5134497;27;20414;-76
2021/07/10 10:52:30;;;;;;;6.87;1.83;;;;;;;38.21;21.89;100429.03;5080909;27;20425;-75
2021/07/10 10:54:58;;;;;;;1.80;1.65;;;;;;;40.82;20.53;100424.72;5074966;28;20400;-80
2021/07/10 10:57:35;;;;;;;1.70;1.60;;;;;;;41.03;20.30;100424.13;5091207;28;20475;-82
2021/07/10 11:00:05;;;;;;;1.75;1.63;;;;;;;40.66;21.34;100419.13;5081847;28;20777;-80
2021/07/10 11:02:32;;;;;;;2.03;1.75;;;;;;;40.17;21.27;100424.97;5091481;28;20454;-82
2021/07/10 11:04:57;;;;;;;2.05;1.42;;;;;;;40.16;21.13;100420.53;5092109;28;20449;-81
2021/07/10 11:07:35;;;;;;;1.80;1.80;;;;;;;40.13;20.98;100409.28;5082955;28;20462;-81
2021/07/10 11:10:03;;;;;;;2.47;1.50;;;;;;;40.10;20.74;100410.16;5075553;28;20404;-81
2021/07/10 11:12:53;;;;;;;1.60;1.60;;;;;;;39.97;21.40;100409.28;5079353;28;20399;-81
2021/07/10 11:15:24;;;;;;;1.83;1.60;;;;;;;39.94;20.76;100402.47;5078184;28;20390;-81
2021/07/10 11:17:49;;;;;;;1.40;1.40;;;;;;;39.67;20.71;100397.06;5075233;28;20583;-81
2021/07/10 11:20:40;;;;;;;1.70;1.60;;;;;;;38.57;22.82;100407.28;5092925;28;20406;-81
2021/07/10 11:23:08;;;;;;;1.50;1.40;;;;;;;37.26;24.16;100386.22;5069023;28;20898;-82
2021/07/10 11:25:45;;;;;;;1.35;1.30;;;;;;;37.00;24.24;100386.97;5078661;28;20984;-81